Barium Springs, NC

6:16 PM EST on March 05, 2015 (GMT -0500)
Statesville Municipal | Change Station
CLOSE
Current Station
Airport
Location: Statesville,
Elevation: 965 ft
Nearby Weather Stations

Elev 965 ft 35.76 °N, 80.96 °W | Updated 21 minutes ago

Mostly Cloudy
Mostly Cloudy
39 °F
Feels Like 30 °F
N
15
Wind Variable Wind from NNE
Gusts 23 mph

Today
High -- | Low -- °F
--% Chance of Precip.
Yesterday
High -- | Low -- °F
Precip. -- in
6:48 AM 6:22 PM
Full, 100% visible
Pressure 30.11 in
Visibility 10.0 miles
Clouds Scattered Clouds 700 ft
Mostly Cloudy 1100 ft
Overcast 1900 ft
Windchill 30 °F
Dew Point 36 °F
Humidity 91%
Rainfall 0.02 in
Snow Depth Not available.
UV 0 out of 12
Pollen 2.00 out of 12
Air Quality Not available.
Flu Activity Not available.
METAR KSVH 052255Z AUTO 02013G20KT 10SM -RA SCT007 BKN011 OVC019 04/02 A3011 RMK AO2 P0001 T00370024

More Conditions Fewer Conditions

Pressure 30.11 in
Visibility 10.0 miles
Clouds Scattered Clouds 700 ft
Mostly Cloudy 1100 ft
Overcast 1900 ft
Windchill 30 °F
Dew Point 36 °F
Humidity 91%
Rainfall 0.02 in
Snow Depth Not available.
UV 0 out of 12
Pollen 2.00 out of 12
Air Quality Not available.
Flu Activity Not available.
METAR KSVH 052255Z AUTO 02013G20KT 10SM -RA SCT007 BKN011 OVC019 04/02 A3011 RMK AO2 P0001 T00370024

More Conditions Fewer Conditions

10-Day Weather Forecast

Almanac

Astronomy

Mar. 05, 2015 Rise Set
Actual Time
Civil Twilight
Nautical Twilight
Astronomical Twilight
Moon
Length of Visible Light
Length of Day
Tomorrow will be .
, % of the Moon is Illuminated

Today's Extremes

State Highs State Lows

Community

WunderPhotos

Upload Photos

1,803,046 photos uploaded!

WunderBlogs® & News

Nearby

Air Quality

  Air Quality AQ Index Pollutant
Not available.

Snow Depth

Station Depth Elevation

Earthquake Activity

City Distance Mag. Time & Date
Minimum magnitude displayed is 2.5.

Coastal Water Temperatures

Place Temperature

Nearby Weather Stations